createdAt,value
2023-02-06T00:00:26.275Z,2.67
2023-02-06T00:04:28.012Z,2.65
2023-02-06T00:08:30.087Z,2.60
2023-02-06T00:12:31.791Z,2.60
2023-02-06T00:16:34.999Z,2.55
2023-02-06T00:20:37.630Z,2.17
2023-02-06T00:24:40.717Z,3.22
2023-02-06T00:28:42.411Z,3.35
2023-02-06T00:32:44.197Z,2.62
2023-02-06T00:36:45.933Z,2.67
2023-02-06T00:40:47.668Z,3.10
2023-02-06T00:44:49.375Z,3.12
2023-02-06T00:48:51.115Z,3.70
2023-02-06T00:52:53.101Z,3.75
2023-02-06T00:56:55.181Z,3.08
2023-02-06T01:00:57.067Z,2.72
2023-02-06T01:04:58.813Z,2.97
2023-02-06T01:09:00.409Z,2.40
2023-02-06T01:13:02.080Z,2.40
2023-02-06T01:17:03.874Z,2.30
2023-02-06T01:21:12.519Z,2.47
2023-02-06T01:25:14.182Z,2.85
2023-02-06T01:29:15.828Z,2.83
2023-02-06T01:33:17.474Z,2.47
2023-02-06T01:37:19.138Z,2.75
2023-02-06T01:41:22.833Z,2.70
2023-02-06T01:45:38.220Z,3.10
2023-02-06T01:49:48.956Z,2.75
2023-02-06T01:53:53.941Z,3.05
2023-02-06T01:57:55.904Z,3.03
2023-02-06T02:01:57.718Z,4.35
2023-02-06T02:06:05.734Z,3.72
2023-02-06T02:10:07.911Z,3.10
2023-02-06T02:14:12.634Z,3.42
2023-02-06T02:18:30.542Z,3.65
2023-02-06T02:23:03.076Z,4.00
2023-02-06T02:27:04.732Z,3.60
2023-02-06T02:31:15.469Z,3.15
2023-02-06T02:35:58.984Z,3.42
2023-02-06T02:40:49.542Z,2.33
2023-02-06T02:45:13.303Z,4.03
2023-02-06T02:49:19.701Z,6.32
2023-02-06T02:53:21.455Z,4.87
2023-02-06T02:57:29.517Z,4.57
2023-02-06T03:01:44.603Z,3.75
2023-02-06T03:06:22.616Z,3.75
2023-02-06T03:10:40.509Z,4.05
2023-02-06T03:15:05.339Z,4.53
2023-02-06T03:19:32.808Z,4.12
2023-02-06T03:23:39.009Z,4.20
2023-02-06T03:27:43.171Z,3.95
2023-02-06T03:31:57.258Z,3.55
2023-02-06T03:35:59.307Z,4.65
2023-02-06T03:40:02.035Z,3.10
2023-02-06T03:44:08.352Z,3.05
2023-02-06T03:48:23.176Z,3.45
2023-02-06T03:52:29.897Z,3.30
2023-02-06T03:56:37.070Z,3.37
2023-02-06T04:00:40.300Z,3.05
2023-02-06T04:04:45.380Z,2.75
2023-02-06T04:08:47.050Z,2.90
2023-02-06T04:12:48.954Z,4.45
2023-02-06T04:16:51.004Z,2.83
2023-02-06T04:20:52.941Z,3.35
2023-02-06T04:24:54.792Z,3.90
2023-02-06T04:28:56.555Z,3.72
2023-02-06T04:32:58.188Z,5.07
2023-02-06T04:37:00.787Z,4.78
2023-02-06T04:41:04.503Z,3.65
2023-02-06T04:45:06.537Z,4.78
2023-02-06T04:49:08.180Z,4.75
2023-02-06T04:53:10.002Z,5.20
2023-02-06T04:57:11.660Z,4.37
2023-02-06T05:01:13.479Z,3.92
2023-02-06T05:05:15.252Z,4.57
2023-02-06T05:09:16.872Z,4.40
2023-02-06T05:13:19.695Z,4.10
2023-02-06T05:17:21.472Z,4.30
2023-02-06T05:21:24.313Z,4.10
2023-02-06T05:25:26.034Z,4.47
2023-02-06T05:29:27.825Z,4.45
2023-02-06T05:33:29.856Z,3.33
2023-02-06T05:37:31.524Z,3.83
2023-02-06T05:41:33.320Z,3.47
2023-02-06T05:45:36.195Z,3.65
2023-02-06T05:49:38.055Z,4.35
2023-02-06T05:53:39.673Z,3.90
2023-02-06T05:57:41.518Z,3.70
2023-02-06T06:01:43.209Z,3.75
2023-02-06T06:05:45.783Z,4.18
2023-02-06T06:09:47.805Z,3.55
2023-02-06T06:13:49.439Z,6.82
2023-02-06T06:17:51.095Z,4.25
2023-02-06T06:21:52.854Z,4.28
2023-02-06T06:25:54.509Z,4.40
2023-02-06T06:29:56.181Z,4.80
2023-02-06T06:33:57.831Z,5.10
2023-02-06T06:37:59.528Z,6.45
2023-02-06T06:42:01.288Z,6.60
2023-02-06T06:46:04.654Z,7.35
2023-02-06T06:50:07.274Z,8.82
2023-02-06T06:54:08.930Z,8.70
2023-02-06T06:58:10.895Z,8.13
2023-02-06T07:02:13.474Z,9.18
2023-02-06T07:06:16.353Z,8.23
2023-02-06T07:10:18.110Z,9.23
2023-02-06T07:14:19.924Z,10.07
2023-02-06T07:18:21.889Z,10.18
2023-02-06T07:22:25.483Z,9.80
2023-02-06T07:26:27.139Z,10.73
2023-02-06T07:30:28.879Z,10.27
2023-02-06T07:34:30.821Z,8.85
2023-02-06T07:38:32.543Z,10.93
2023-02-06T07:42:34.222Z,9.57
2023-02-06T07:46:35.948Z,10.18
2023-02-06T07:50:37.908Z,12.27
2023-02-06T07:54:39.548Z,10.43
2023-02-06T07:58:41.707Z,10.57
2023-02-06T08:02:43.587Z,10.80
2023-02-06T08:06:45.335Z,12.35
2023-02-06T08:10:47.940Z,11.18
2023-02-06T08:14:49.612Z,11.57
2023-02-06T08:18:51.354Z,11.02
2023-02-06T08:22:54.206Z,10.25
2023-02-06T08:26:55.903Z,9.48
2023-02-06T08:30:57.921Z,10.15
2023-02-06T08:34:59.633Z,10.25
2023-02-06T08:39:02.301Z,11.10
2023-02-06T08:43:04.073Z,11.12
2023-02-06T08:47:10.280Z,10.73
2023-02-06T08:51:13.260Z,12.23
2023-02-06T08:55:15.041Z,12.48
2023-02-06T08:59:19.204Z,12.63
2023-02-06T09:03:22.661Z,12.50
2023-02-06T09:07:24.578Z,15.55
2023-02-06T09:11:27.259Z,14.98
2023-02-06T09:15:29.012Z,14.93
2023-02-06T09:19:30.650Z,14.60
2023-02-06T09:23:32.529Z,15.05
2023-02-06T09:27:34.253Z,14.30
2023-02-06T09:31:38.498Z,14.25
2023-02-06T09:35:40.268Z,16.12
2023-02-06T09:39:42.182Z,15.68
2023-02-06T09:43:56.177Z,16.05
2023-02-06T09:48:20.961Z,16.45
2023-02-06T09:52:45.896Z,15.85
2023-02-06T09:57:03.767Z,16.67
2023-02-06T10:01:22.218Z,16.27
2023-02-06T10:05:35.446Z,16.35
2023-02-06T10:09:51.469Z,15.50
2023-02-06T10:14:01.536Z,18.00
2023-02-06T10:18:11.540Z,16.70
2023-02-06T10:22:26.810Z,15.20
2023-02-06T10:26:29.122Z,15.25
2023-02-06T10:31:06.061Z,14.43
2023-02-06T10:35:23.904Z,14.50
2023-02-06T10:40:16.885Z,13.88
2023-02-06T10:44:51.539Z,13.50
2023-02-06T10:49:10.645Z,14.98
2023-02-06T10:53:19.535Z,12.98
2023-02-06T10:57:24.834Z,13.00
2023-02-06T11:01:31.049Z,14.60
2023-02-06T11:05:32.733Z,14.50
2023-02-06T11:09:34.499Z,14.87
2023-02-06T11:13:39.154Z,13.50
2023-02-06T11:17:42.013Z,14.15
2023-02-06T11:21:55.709Z,14.20
2023-02-06T11:26:04.316Z,15.20
2023-02-06T11:30:41.255Z,12.65
2023-02-06T11:34:53.598Z,13.50
2023-02-06T11:38:58.153Z,14.18
2023-02-06T11:43:20.692Z,11.95
2023-02-06T11:47:32.494Z,12.52
2023-02-06T11:51:54.466Z,13.98
2023-02-06T11:56:02.540Z,15.52
2023-02-06T12:00:23.569Z,14.45
2023-02-06T12:04:40.558Z,12.70
2023-02-06T12:08:52.928Z,13.62
2023-02-06T12:12:59.990Z,12.60
2023-02-06T12:17:03.880Z,13.43
2023-02-06T12:21:12.987Z,13.55
2023-02-06T12:25:37.999Z,17.58
2023-02-06T12:29:50.996Z,14.32
2023-02-06T12:34:00.477Z,13.50
2023-02-06T12:38:16.559Z,14.82
2023-02-06T12:42:18.248Z,15.43
2023-02-06T12:46:23.723Z,14.35
2023-02-06T12:50:32.356Z,15.80
2023-02-06T12:54:39.883Z,17.23
2023-02-06T12:58:44.574Z,15.88
2023-02-06T13:03:01.548Z,16.05
2023-02-06T13:07:03.160Z,16.87
2023-02-06T13:11:17.721Z,14.70
2023-02-06T13:15:28.922Z,15.23
2023-02-06T13:19:51.751Z,16.37
2023-02-06T13:24:02.495Z,14.52
2023-02-06T13:28:22.766Z,16.62
2023-02-06T13:32:31.040Z,16.27
2023-02-06T13:36:49.907Z,17.58
2023-02-06T13:41:16.222Z,16.75
2023-02-06T13:45:27.097Z,16.92
2023-02-06T13:49:53.703Z,17.40
2023-02-06T13:54:34.321Z,18.62
2023-02-06T13:58:52.575Z,18.12
2023-02-06T14:03:13.308Z,18.05
2023-02-06T14:07:42.432Z,16.37
2023-02-06T14:12:21.463Z,17.58
2023-02-06T14:16:44.816Z,17.62
2023-02-06T14:21:24.413Z,19.23
2023-02-06T14:26:15.346Z,19.20
2023-02-06T14:30:26.026Z,18.42
2023-02-06T14:34:36.989Z,18.52
2023-02-06T14:38:41.515Z,17.83
2023-02-06T14:42:45.357Z,17.17
2023-02-06T14:46:47.587Z,17.73
2023-02-06T14:50:55.534Z,17.48
2023-02-06T14:54:58.035Z,17.05
2023-02-06T14:59:17.491Z,16.20
2023-02-06T15:03:23.239Z,15.93
2023-02-06T15:07:32.219Z,16.08
2023-02-06T15:11:34.845Z,15.18
2023-02-06T15:15:36.691Z,15.10
2023-02-06T15:19:38.549Z,14.70
2023-02-06T15:23:54.607Z,24.00
2023-02-06T15:28:04.338Z,16.67
2023-02-06T15:32:17.751Z,16.02
2023-02-06T15:36:32.546Z,16.30
2023-02-06T15:40:38.121Z,16.95
2023-02-06T15:44:40.216Z,16.05
2023-02-06T15:48:49.287Z,17.70
2023-02-06T15:52:51.209Z,18.30
2023-02-06T15:57:06.972Z,20.67
2023-02-06T16:01:16.939Z,22.15
2023-02-06T16:05:30.574Z,21.25
2023-02-06T16:09:49.633Z,20.35
2023-02-06T16:13:53.729Z,14.80
2023-02-06T16:17:56.182Z,14.55
2023-02-06T16:22:26.575Z,14.93
2023-02-06T16:26:32.780Z,14.13
2023-02-06T16:30:36.681Z,14.37
2023-02-06T16:34:43.690Z,12.95
2023-02-06T16:38:54.122Z,13.57
2023-02-06T16:43:00.443Z,13.75
2023-02-06T16:47:02.589Z,12.93
2023-02-06T16:51:05.767Z,12.30
2023-02-06T16:55:17.438Z,13.07
2023-02-06T16:59:19.551Z,13.75
2023-02-06T17:03:21.206Z,13.80
2023-02-06T17:07:26.203Z,14.13
2023-02-06T17:11:27.941Z,13.18
2023-02-06T17:15:31.879Z,12.75
2023-02-06T17:19:33.593Z,12.98
2023-02-06T17:23:35.234Z,11.05
2023-02-06T17:27:36.898Z,11.40
2023-02-06T17:31:38.597Z,10.48
2023-02-06T17:35:40.484Z,11.30
2023-02-06T17:39:42.652Z,11.15
2023-02-06T17:43:44.310Z,12.60
2023-02-06T17:47:46.328Z,13.05
2023-02-06T17:51:47.928Z,11.63
2023-02-06T17:55:49.582Z,10.50
2023-02-06T17:59:54.343Z,10.07
2023-02-06T18:03:56.030Z,9.48
2023-02-06T18:07:57.667Z,10.52
2023-02-06T18:11:59.322Z,10.43
2023-02-06T18:16:01.041Z,10.35
2023-02-06T18:20:02.924Z,11.82
2023-02-06T18:24:05.243Z,11.23
2023-02-06T18:28:07.697Z,11.07
2023-02-06T18:32:10.250Z,10.68
2023-02-06T18:36:11.954Z,9.75
2023-02-06T18:40:13.832Z,9.63
2023-02-06T18:44:15.604Z,11.50
2023-02-06T18:48:17.328Z,11.48
2023-02-06T18:52:18.973Z,12.65
2023-02-06T18:56:20.658Z,12.63
2023-02-06T19:00:23.820Z,17.15
2023-02-06T19:04:25.650Z,18.50
2023-02-06T19:08:27.369Z,15.57
2023-02-06T19:12:29.511Z,11.32
2023-02-06T19:16:32.410Z,11.05
2023-02-06T19:20:34.200Z,10.90
2023-02-06T19:24:35.877Z,10.55
2023-02-06T19:28:39.053Z,10.80
2023-02-06T19:32:40.874Z,10.50
2023-02-06T19:36:43.418Z,10.50
2023-02-06T19:40:47.155Z,9.25
2023-02-06T19:44:54.324Z,7.95
2023-02-06T19:48:56.479Z,10.07
2023-02-06T19:52:58.079Z,8.93
2023-02-06T19:57:00.449Z,8.32
2023-02-06T20:01:14.261Z,8.23
2023-02-06T20:05:16.124Z,8.23
2023-02-06T20:09:19.982Z,7.65
2023-02-06T20:13:21.657Z,7.65
2023-02-06T20:17:25.083Z,9.07
2023-02-06T20:21:32.837Z,7.57
2023-02-06T20:25:38.083Z,8.00
2023-02-06T20:29:42.383Z,7.90
2023-02-06T20:33:44.264Z,8.55
2023-02-06T20:37:45.920Z,8.68
2023-02-06T20:41:49.408Z,10.20
2023-02-06T20:45:52.320Z,7.43
2023-02-06T20:49:54.045Z,8.82
2023-02-06T20:53:56.288Z,8.55
2023-02-06T20:57:57.933Z,7.85
2023-02-06T21:01:59.594Z,7.57
2023-02-06T21:06:01.272Z,6.75
2023-02-06T21:10:04.433Z,8.05
2023-02-06T21:14:06.692Z,8.55
2023-02-06T21:18:08.392Z,7.80
2023-02-06T21:22:10.016Z,7.82
2023-02-06T21:26:13.536Z,7.85
2023-02-06T21:30:15.679Z,8.45
2023-02-06T21:34:21.275Z,8.13
2023-02-06T21:38:24.575Z,7.47
2023-02-06T21:42:27.356Z,7.30
2023-02-06T21:46:30.799Z,8.50
2023-02-06T21:50:33.401Z,7.85
2023-02-06T21:54:35.064Z,7.78
2023-02-06T21:58:37.060Z,8.35
2023-02-06T22:02:38.736Z,8.13
2023-02-06T22:06:41.029Z,7.90
2023-02-06T22:10:42.802Z,8.43
2023-02-06T22:14:44.530Z,8.90
2023-02-06T22:18:46.290Z,9.68
2023-02-06T22:22:47.924Z,10.23
2023-02-06T22:26:49.538Z,9.60
2023-02-06T22:30:51.200Z,9.25
2023-02-06T22:34:53.846Z,9.70
2023-02-06T22:39:01.980Z,9.73
2023-02-06T22:43:03.649Z,9.68
2023-02-06T22:47:05.480Z,10.50
2023-02-06T22:51:09.268Z,10.57
2023-02-06T22:55:11.023Z,9.00
2023-02-06T22:59:14.644Z,9.35
2023-02-06T23:03:16.707Z,8.88
2023-02-06T23:07:18.368Z,8.50
2023-02-06T23:11:20.931Z,9.30
2023-02-06T23:15:22.589Z,10.02
2023-02-06T23:19:24.560Z,10.30
2023-02-06T23:23:26.985Z,11.10
2023-02-06T23:27:29.239Z,11.98
2023-02-06T23:31:31.371Z,12.80
2023-02-06T23:35:36.975Z,13.45
2023-02-06T23:39:38.812Z,12.15
2023-02-06T23:43:40.808Z,11.20
2023-02-06T23:47:42.678Z,10.82
2023-02-06T23:51:44.424Z,9.40
2023-02-06T23:55:46.531Z,11.20
2023-02-06T23:59:48.494Z,10.50
